createdAt,value
2023-03-23T15:58:36.795Z,17.42
2023-03-23T16:01:26.266Z,17.46
2023-03-23T16:04:01.794Z,17.47
2023-03-23T16:06:33.790Z,17.42
2023-03-23T16:09:02.095Z,17.34
2023-03-23T16:11:34.087Z,17.45
2023-03-23T16:14:01.904Z,17.34
2023-03-23T16:16:36.959Z,17.27
2023-03-23T16:19:07.144Z,17.25
2023-03-23T16:21:36.448Z,16.92
2023-03-23T16:24:04.141Z,16.73
2023-03-23T16:26:31.931Z,16.61
2023-03-23T16:29:09.616Z,16.44
2023-03-23T16:31:40.410Z,16.47
2023-03-23T16:34:08.358Z,16.34
2023-03-23T16:36:36.199Z,16.18
2023-03-23T16:39:03.669Z,16.05
2023-03-23T16:41:31.282Z,15.96
2023-03-23T16:44:05.667Z,15.92
2023-03-23T16:46:34.052Z,15.92
2023-03-23T16:49:01.555Z,15.83
2023-03-23T16:51:29.752Z,15.67
2023-03-23T16:53:57.343Z,15.78
2023-03-23T16:56:25.160Z,15.54
2023-03-23T16:58:52.782Z,15.30
2023-03-23T17:01:20.371Z,15.19
2023-03-23T17:03:48.021Z,15.09
2023-03-23T17:06:15.569Z,14.96
2023-03-23T17:08:42.991Z,14.99
2023-03-23T17:11:13.158Z,14.93
2023-03-23T17:13:42.110Z,14.93
2023-03-23T17:16:09.865Z,14.87
2023-03-23T17:18:38.990Z,14.65
2023-03-23T17:21:07.677Z,14.51
2023-03-23T17:23:38.046Z,14.39
2023-03-23T17:26:05.975Z,14.34
2023-03-23T17:28:33.484Z,14.30
2023-03-23T17:31:02.880Z,14.32
2023-03-23T17:33:30.553Z,14.14
2023-03-23T17:35:58.126Z,13.98
2023-03-23T17:38:27.180Z,14.04
2023-03-23T17:40:59.678Z,14.06
2023-03-23T17:43:29.212Z,14.13
2023-03-23T17:45:56.701Z,14.09
2023-03-23T17:48:24.081Z,14.24
2023-03-23T17:50:57.665Z,14.35
2023-03-23T17:53:26.841Z,14.50
2023-03-23T17:56:00.067Z,14.61
2023-03-23T17:58:28.275Z,14.58
2023-03-23T18:00:56.603Z,14.63
2023-03-23T18:03:26.347Z,14.65
2023-03-23T18:06:02.335Z,14.67
2023-03-23T18:08:30.689Z,14.63
2023-03-23T18:11:01.531Z,14.81
2023-03-23T18:13:33.403Z,14.78
2023-03-23T18:16:01.219Z,14.76
2023-03-23T18:18:30.599Z,14.87
2023-03-23T18:21:08.362Z,14.89
2023-03-23T18:23:46.109Z,15.02
2023-03-23T18:26:18.874Z,15.07
2023-03-23T18:28:46.270Z,15.11
2023-03-23T18:31:17.489Z,15.13
2023-03-23T18:33:48.357Z,15.06
2023-03-23T18:36:19.373Z,15.09
2023-03-23T18:38:48.365Z,15.06
2023-03-23T18:41:17.424Z,15.13
2023-03-23T18:43:46.175Z,15.06
2023-03-23T18:46:15.162Z,15.05
2023-03-23T18:48:42.961Z,14.96
2023-03-23T18:51:11.430Z,15.03
2023-03-23T18:53:39.213Z,14.93
2023-03-23T18:56:09.414Z,14.96
2023-03-23T18:58:39.066Z,14.99
2023-03-23T19:01:10.016Z,14.88
2023-03-23T19:03:38.755Z,14.83
2023-03-23T19:06:07.312Z,14.84
2023-03-23T19:08:35.091Z,14.65
2023-03-23T19:11:04.709Z,14.49
2023-03-23T19:13:34.678Z,14.34
2023-03-23T19:16:03.603Z,14.28
2023-03-23T19:18:31.172Z,14.21
2023-03-23T19:23:30.214Z,14.02
2023-03-23T19:25:58.378Z,14.01
2023-03-23T19:30:58.319Z,14.00
2023-03-23T19:33:28.422Z,13.85
2023-03-23T19:36:06.749Z,13.70
2023-03-23T19:38:39.026Z,13.52
2023-03-23T19:41:07.050Z,13.36
2023-03-23T19:43:36.311Z,13.28
2023-03-23T19:46:05.242Z,13.41
2023-03-23T19:48:33.767Z,13.45
2023-03-23T19:51:02.587Z,13.32
2023-03-23T19:53:30.281Z,13.25
2023-03-23T19:56:01.030Z,13.34
2023-03-23T20:00:57.864Z,13.47
2023-03-23T20:03:26.366Z,13.48
2023-03-23T20:06:04.109Z,13.43
2023-03-23T20:08:32.382Z,13.30
2023-03-23T20:11:10.463Z,13.17
2023-03-23T20:13:41.662Z,13.07
2023-03-23T20:16:10.674Z,12.99
2023-03-23T20:18:38.523Z,12.91
2023-03-23T20:21:08.018Z,12.87
2023-03-23T20:23:37.471Z,12.76
2023-03-23T20:26:14.339Z,12.75
2023-03-23T20:28:43.752Z,12.63
2023-03-23T20:31:28.042Z,12.40
2023-03-23T20:34:02.561Z,12.35
2023-03-23T20:36:40.579Z,12.26
2023-03-23T20:39:21.564Z,12.25
2023-03-23T20:41:50.998Z,12.35
2023-03-23T20:44:19.958Z,12.35
2023-03-23T20:46:52.491Z,12.29
2023-03-23T20:49:22.132Z,12.41
2023-03-23T20:51:55.650Z,12.56
2023-03-23T20:54:24.688Z,12.42
2023-03-23T20:56:53.747Z,12.43
2023-03-23T20:59:23.460Z,12.42
2023-03-23T21:01:51.292Z,12.35
2023-03-23T21:04:23.067Z,12.29
2023-03-23T21:06:52.034Z,12.17
2023-03-23T21:09:20.124Z,11.85
2023-03-23T21:11:48.735Z,12.05
2023-03-23T21:14:18.454Z,11.98
2023-03-23T21:16:46.506Z,11.74
2023-03-23T21:19:20.863Z,11.55
2023-03-23T21:21:56.007Z,11.55
2023-03-23T21:24:29.631Z,11.59
2023-03-23T21:27:00.200Z,11.62
2023-03-23T21:29:29.298Z,11.50
2023-03-23T21:34:27.894Z,11.61
2023-03-23T21:36:56.493Z,11.49
2023-03-23T21:39:24.988Z,11.42
2023-03-23T21:41:52.478Z,11.56
2023-03-23T21:44:26.068Z,11.55
2023-03-23T21:46:55.238Z,11.44
2023-03-23T21:49:23.643Z,11.42
2023-03-23T21:51:51.172Z,11.12
2023-03-23T21:54:21.353Z,10.98
2023-03-23T21:56:48.898Z,11.02
2023-03-23T21:59:25.328Z,11.10
2023-03-23T22:01:52.865Z,10.95
2023-03-23T22:04:21.144Z,11.07
2023-03-23T22:06:54.305Z,10.85
2023-03-23T22:09:22.010Z,10.84
2023-03-23T22:11:49.550Z,10.93
2023-03-23T22:14:21.588Z,11.19
2023-03-23T22:16:49.768Z,11.01
2023-03-23T22:19:17.228Z,10.92
2023-03-23T22:21:45.160Z,11.07
2023-03-23T22:24:13.324Z,11.06
2023-03-23T22:26:40.989Z,10.94
2023-03-23T22:29:17.228Z,10.79
2023-03-23T22:34:13.783Z,10.59
2023-03-23T22:36:41.223Z,10.45
2023-03-23T22:39:09.876Z,10.35
2023-03-23T22:41:41.261Z,10.39
2023-03-23T22:44:13.029Z,10.40
2023-03-23T22:46:41.778Z,10.63
2023-03-23T22:49:11.489Z,10.31
2023-03-23T22:51:39.862Z,10.16
2023-03-23T22:54:12.908Z,10.14
2023-03-23T22:56:41.131Z,10.15
2023-03-23T22:59:09.519Z,10.20
2023-03-23T23:01:37.132Z,10.27
2023-03-23T23:04:05.639Z,10.15
2023-03-23T23:06:34.302Z,10.33
2023-03-23T23:09:01.767Z,10.34
2023-03-23T23:11:29.905Z,10.43
2023-03-23T23:14:01.883Z,10.54
2023-03-23T23:16:30.287Z,10.37
2023-03-23T23:18:57.886Z,10.36
2023-03-23T23:21:28.983Z,10.29
2023-03-23T23:23:56.679Z,10.31
2023-03-23T23:26:24.357Z,10.08
2023-03-23T23:28:52.908Z,9.92
2023-03-23T23:31:27.191Z,10.12
2023-03-23T23:33:57.165Z,9.90
2023-03-23T23:36:30.302Z,9.85
2023-03-23T23:39:00.623Z,9.93
2023-03-23T23:41:34.719Z,10.03
2023-03-23T23:44:03.774Z,9.95
2023-03-23T23:46:31.989Z,9.93
2023-03-23T23:49:00.423Z,10.06
2023-03-23T23:51:29.210Z,10.16
2023-03-23T23:54:01.659Z,10.21
2023-03-23T23:56:31.220Z,9.80
2023-03-23T23:58:59.207Z,9.64
